Terminal Aerodrome Forecast
Issued by NWS Blacksburg, VA

Current Version | Previous Version | Graphics & Text | Print | Product List | Glossary On
Versions: 1 2 3 4 5 6 7 8 9 10 11 12 13 14 15 16 17 18 19 20 21 22 23 24 25 26 27 28 29 30 31 32 33 34 35 36 37 38 39 40 41 42
000
FTUS41 KRNK 301329 AAA
TAFBLF
TAF AMD
KBLF 301329Z 3013/0112 32012G20KT 4SM -SHRA BR SCT015 BKN040
      TEMPO 3013/3014 2SM SHRA BKN015
     FM301400 25010G20KT 4SM SHRA BR SCT004 OVC025
     FM301700 22010G24KT P6SM -SHRA OVC030
     FM302000 24008KT 5SM SHRA BR OVC020
     FM010000 27009KT P6SM OVC015
     FM010600 29010G22KT P6SM OVC020=

USA.gov is the U.S. government's official web portal to all federal, state and local government web resources and services.